createdAt,value
2023-04-10T00:00:11.828Z,2.32
2023-04-10T00:02:50.139Z,2.31
2023-04-10T00:05:21.461Z,2.71
2023-04-10T00:08:03.209Z,2.20
2023-04-10T00:10:38.965Z,2.14
2023-04-10T00:13:12.755Z,2.40
2023-04-10T00:15:48.204Z,2.38
2023-04-10T00:18:18.984Z,2.34
2023-04-10T00:21:00.212Z,2.20
2023-04-10T00:23:33.990Z,2.54
2023-04-10T00:26:04.863Z,2.28
2023-04-10T00:28:41.231Z,2.52
2023-04-10T00:31:12.143Z,2.56
2023-04-10T00:33:45.751Z,2.53
2023-04-10T00:36:17.374Z,2.38
2023-04-10T00:38:49.706Z,2.24
2023-04-10T00:41:26.888Z,1.89
2023-04-10T00:43:58.986Z,2.09
2023-04-10T00:46:36.452Z,1.83
2023-04-10T00:49:09.574Z,1.79
2023-04-10T00:51:58.432Z,2.04
2023-04-10T00:54:35.972Z,2.10
2023-04-10T00:57:09.218Z,2.23
2023-04-10T00:59:52.591Z,2.40
2023-04-10T01:02:23.037Z,2.37
2023-04-10T01:04:59.338Z,2.33
2023-04-10T01:08:01.517Z,2.41
2023-04-10T01:11:07.549Z,2.56
2023-04-10T01:13:41.074Z,2.48
2023-04-10T01:16:57.029Z,2.16
2023-04-10T01:20:03.318Z,2.19
2023-04-10T01:25:53.147Z,2.18
2023-04-10T01:29:03.603Z,2.32
2023-04-10T01:32:12.286Z,2.00
2023-04-10T01:34:46.305Z,2.52
2023-04-10T01:37:21.807Z,2.25
2023-04-10T01:40:04.903Z,1.89
2023-04-10T01:42:40.013Z,1.92
2023-04-10T01:45:21.503Z,1.48
2023-04-10T01:48:02.181Z,1.68
2023-04-10T01:50:32.933Z,1.97
2023-04-10T01:53:07.075Z,2.01
2023-04-10T01:55:47.671Z,1.97
2023-04-10T01:58:25.544Z,2.03
2023-04-10T02:01:02.779Z,2.35
2023-04-10T02:03:31.768Z,2.66
2023-04-10T02:06:19.930Z,2.63
2023-04-10T02:08:59.143Z,2.59
2023-04-10T02:11:48.946Z,2.41
2023-04-10T02:14:20.313Z,2.55
2023-04-10T02:16:57.717Z,2.50
2023-04-10T02:19:36.488Z,1.88
2023-04-10T02:22:10.998Z,2.38
2023-04-10T02:24:49.122Z,2.32
2023-04-10T02:27:31.230Z,2.20
2023-04-10T02:30:06.267Z,2.10
2023-04-10T02:32:42.750Z,2.19
2023-04-10T02:35:14.427Z,2.19
2023-04-10T02:37:49.948Z,2.11
2023-04-10T02:43:22.177Z,1.56
2023-04-10T02:48:45.637Z,1.29
2023-04-10T02:51:23.463Z,1.23
2023-04-10T02:54:04.262Z,1.15
2023-04-10T02:56:40.201Z,1.25
2023-04-10T02:59:11.118Z,1.31
2023-04-10T03:01:45.004Z,1.36
2023-04-10T03:04:13.167Z,1.49
2023-04-10T03:06:48.228Z,1.32
2023-04-10T03:09:24.546Z,1.50
2023-04-10T03:11:57.223Z,1.61
2023-04-10T03:14:34.928Z,1.43
2023-04-10T03:17:14.570Z,1.66
2023-04-10T03:19:56.975Z,1.50
2023-04-10T03:22:33.819Z,1.55
2023-04-10T03:25:05.872Z,1.36
2023-04-10T03:27:47.299Z,1.46
2023-04-10T03:30:21.995Z,1.33
2023-04-10T03:32:57.070Z,1.12
2023-04-10T03:35:29.023Z,1.19
2023-04-10T03:38:02.952Z,1.25
2023-04-10T03:40:36.422Z,1.18
2023-04-10T03:43:19.590Z,1.18
2023-04-10T03:45:51.263Z,0.97
2023-04-10T03:48:24.211Z,0.61
2023-04-10T03:50:58.258Z,0.88
2023-04-10T03:53:38.901Z,0.90
2023-04-10T03:56:16.877Z,0.79
2023-04-10T03:58:51.328Z,0.64
2023-04-10T04:01:31.638Z,0.93
2023-04-10T04:04:12.573Z,0.99
2023-04-10T04:07:16.315Z,0.72
2023-04-10T04:10:13.585Z,0.33
2023-04-10T04:12:57.171Z,0.95
2023-04-10T04:15:56.970Z,1.02
2023-04-10T04:18:48.338Z,1.18
2023-04-10T04:21:40.189Z,0.76
2023-04-10T04:24:34.279Z,0.39
2023-04-10T04:27:21.990Z,0.66
2023-04-10T04:30:26.708Z,0.83
2023-04-10T04:33:31.665Z,0.35
2023-04-10T04:36:12.823Z,0.34
2023-04-10T04:39:09.269Z,0.17
2023-04-10T04:42:06.921Z,0.16
2023-04-10T04:45:16.577Z,0.41
2023-04-10T04:48:05.190Z,0.41
2023-04-10T04:50:51.780Z,0.66
2023-04-10T04:53:55.360Z,0.68
2023-04-10T04:56:46.121Z,0.75
2023-04-10T04:59:59.301Z,0.80
2023-04-10T05:02:58.419Z,0.41
2023-04-10T05:05:56.923Z,0.51
2023-04-10T05:08:48.163Z,0.63
2023-04-10T05:11:51.404Z,0.81
2023-04-10T05:14:45.607Z,0.66
2023-04-10T05:17:31.934Z,0.79
2023-04-10T05:20:21.963Z,0.99
2023-04-10T05:23:09.618Z,1.13
2023-04-10T05:25:43.275Z,0.96
2023-04-10T05:28:29.700Z,1.10
2023-04-10T05:31:28.608Z,1.03
2023-04-10T05:34:16.023Z,1.32
2023-04-10T05:37:05.744Z,1.36
2023-04-10T05:40:05.513Z,1.49
2023-04-10T05:42:56.499Z,1.64
2023-04-10T05:45:39.058Z,1.88
2023-04-10T05:48:29.078Z,1.76
2023-04-10T05:51:40.573Z,1.61
2023-04-10T05:54:37.927Z,1.87
2023-04-10T05:57:15.002Z,1.97
2023-04-10T06:00:04.361Z,1.96
2023-04-10T06:03:17.143Z,2.16
2023-04-10T06:06:02.066Z,2.31
2023-04-10T06:08:34.889Z,2.43
2023-04-10T06:11:13.265Z,2.51
2023-04-10T06:16:45.732Z,2.52
2023-04-10T06:19:16.774Z,2.57
2023-04-10T06:21:53.944Z,2.52
2023-04-10T06:24:31.405Z,2.58
2023-04-10T06:27:12.719Z,2.77
2023-04-10T06:29:44.465Z,2.84
2023-04-10T06:32:18.352Z,2.72
2023-04-10T06:35:06.613Z,2.80
2023-04-10T06:37:36.713Z,3.14
2023-04-10T06:40:17.319Z,3.16
2023-04-10T06:42:50.572Z,3.29
2023-04-10T06:45:54.649Z,3.58
2023-04-10T06:48:33.082Z,3.76
2023-04-10T06:51:09.478Z,3.82
2023-04-10T06:53:40.608Z,4.06
2023-04-10T06:56:17.347Z,4.04
2023-04-10T06:58:53.540Z,4.48
2023-04-10T07:01:33.316Z,4.41
2023-04-10T07:04:04.629Z,4.72
2023-04-10T07:06:44.849Z,4.94
2023-04-10T07:09:18.145Z,4.75
2023-04-10T07:11:50.157Z,4.93
2023-04-10T07:14:22.895Z,5.11
2023-04-10T07:16:54.322Z,5.20
2023-04-10T07:19:43.382Z,4.97
2023-04-10T07:22:16.014Z,5.62
2023-04-10T07:24:58.044Z,5.64
2023-04-10T07:27:35.430Z,5.61
2023-04-10T07:30:07.409Z,5.72
2023-04-10T07:32:41.727Z,5.73
2023-04-10T07:35:14.849Z,5.66
2023-04-10T07:40:48.862Z,6.16
2023-04-10T07:43:20.456Z,6.38
2023-04-10T07:45:54.904Z,6.52
2023-04-10T07:51:10.828Z,6.97
2023-04-10T07:53:40.540Z,6.97
2023-04-10T07:56:23.998Z,6.98
2023-04-10T07:58:53.989Z,7.25
2023-04-10T08:01:25.051Z,7.47
2023-04-10T08:04:00.646Z,7.10
2023-04-10T08:06:34.946Z,7.22
2023-04-10T08:09:10.743Z,7.41
2023-04-10T08:11:41.401Z,7.43
2023-04-10T08:14:18.487Z,7.53
2023-04-10T08:16:47.916Z,7.53
2023-04-10T08:19:21.651Z,7.82
2023-04-10T08:21:52.362Z,7.75
2023-04-10T08:24:25.986Z,7.98
2023-04-10T08:26:58.121Z,8.06
2023-04-10T08:29:27.108Z,7.90
2023-04-10T08:32:04.667Z,7.91
2023-04-10T08:34:35.794Z,8.25
2023-04-10T08:37:12.023Z,7.91
2023-04-10T08:39:42.735Z,8.39
2023-04-10T08:42:14.230Z,8.47
2023-04-10T08:44:49.454Z,8.68
2023-04-10T08:50:12.042Z,8.65
2023-04-10T08:52:46.521Z,8.82
2023-04-10T08:55:20.006Z,8.89
2023-04-10T09:00:50.449Z,9.27
2023-04-10T09:03:29.389Z,9.25
2023-04-10T09:06:04.540Z,9.65
2023-04-10T09:08:40.972Z,9.32
2023-04-10T09:11:16.696Z,9.30
2023-04-10T09:13:51.302Z,9.64
2023-04-10T09:16:32.525Z,9.92
2023-04-10T09:19:10.221Z,10.33
2023-04-10T09:21:54.144Z,10.30
2023-04-10T09:24:24.481Z,10.11
2023-04-10T09:26:58.881Z,10.73
2023-04-10T09:29:29.785Z,10.99
2023-04-10T09:31:57.596Z,10.78
2023-04-10T09:34:29.324Z,11.19
2023-04-10T09:37:09.990Z,11.40
2023-04-10T09:39:43.916Z,11.43
2023-04-10T09:42:23.618Z,11.13
2023-04-10T09:44:59.080Z,11.17
2023-04-10T09:47:29.593Z,11.31
2023-04-10T09:50:06.084Z,11.25
2023-04-10T09:52:52.955Z,11.15
2023-04-10T09:55:23.511Z,10.76
2023-04-10T09:57:55.899Z,10.90
2023-04-10T10:00:26.529Z,11.20
2023-04-10T10:05:48.579Z,11.72
2023-04-10T10:08:25.206Z,12.36
2023-04-10T10:10:58.817Z,12.55
2023-04-10T10:14:06.041Z,12.15
2023-04-10T10:17:03.039Z,12.10
2023-04-10T10:20:04.392Z,11.94
2023-04-10T10:22:39.370Z,11.84
2023-04-10T10:25:13.976Z,11.68
2023-04-10T10:27:50.765Z,11.74
2023-04-10T10:30:29.931Z,11.74
2023-04-10T10:33:10.269Z,11.98
2023-04-10T10:35:42.040Z,12.28
2023-04-10T10:38:11.938Z,13.11
2023-04-10T10:41:09.147Z,13.96
2023-04-10T10:44:23.382Z,13.52
2023-04-10T10:47:34.052Z,14.26
2023-04-10T10:50:05.964Z,14.79
2023-04-10T10:53:09.872Z,14.71
2023-04-10T10:55:44.195Z,14.98
2023-04-10T10:58:17.801Z,15.19
2023-04-10T11:00:56.504Z,14.05
2023-04-10T11:03:24.344Z,14.05
2023-04-10T11:06:15.515Z,14.86
2023-04-10T11:09:03.315Z,15.55
2023-04-10T11:11:34.237Z,15.45
2023-04-10T11:14:20.885Z,15.71
2023-04-10T11:17:00.104Z,15.44
2023-04-10T11:19:43.601Z,16.32
2023-04-10T11:22:23.791Z,16.04
2023-04-10T11:25:11.891Z,15.06
2023-04-10T11:27:58.797Z,14.94
2023-04-10T11:30:29.870Z,14.96
2023-04-10T11:33:03.437Z,15.74
2023-04-10T11:35:35.510Z,15.69
2023-04-10T11:38:13.779Z,16.04
2023-04-10T11:41:21.272Z,15.22
2023-04-10T11:43:53.574Z,16.02
2023-04-10T11:46:31.781Z,14.75
2023-04-10T11:49:12.694Z,14.40
2023-04-10T11:51:46.443Z,15.84
2023-04-10T11:54:27.468Z,16.45
2023-04-10T11:57:07.688Z,16.60
2023-04-10T11:59:44.056Z,16.53
2023-04-10T12:02:20.920Z,15.59
2023-04-10T12:04:59.602Z,16.24
2023-04-10T12:07:34.655Z,16.04
2023-04-10T12:10:14.919Z,16.79
2023-04-10T12:12:47.247Z,17.38
2023-04-10T12:15:38.630Z,17.55
2023-04-10T12:18:09.556Z,17.12
2023-04-10T12:20:40.394Z,17.23
2023-04-10T12:23:10.482Z,17.75
2023-04-10T12:25:46.329Z,18.01
2023-04-10T12:28:26.549Z,18.06
2023-04-10T12:31:06.099Z,17.66
2023-04-10T12:33:43.636Z,17.96
2023-04-10T12:36:32.442Z,18.29
2023-04-10T12:41:53.825Z,18.38
2023-04-10T12:44:24.119Z,19.18
2023-04-10T12:47:10.302Z,19.16
2023-04-10T12:49:46.285Z,19.70
2023-04-10T12:55:28.226Z,27.89
2023-04-10T12:58:07.194Z,25.40
2023-04-10T13:00:37.248Z,22.66
2023-04-10T13:03:13.632Z,19.63
2023-04-10T13:05:47.060Z,18.29
2023-04-10T13:08:27.481Z,20.10
2023-04-10T13:10:58.383Z,20.46
2023-04-10T13:13:35.712Z,21.81
2023-04-10T13:16:03.964Z,21.56
2023-04-10T13:18:37.851Z,22.01
2023-04-10T13:21:09.129Z,22.97
2023-04-10T13:23:40.624Z,27.21
2023-04-10T13:26:14.097Z,29.96
2023-04-10T13:28:45.778Z,27.08
2023-04-10T13:31:16.584Z,25.65
2023-04-10T13:33:54.627Z,25.05
2023-04-10T13:36:27.767Z,26.63
2023-04-10T13:39:02.768Z,28.80
2023-04-10T13:41:46.532Z,29.49
2023-04-10T13:44:20.009Z,29.53
2023-04-10T13:46:49.452Z,29.60
2023-04-10T13:49:24.554Z,29.44
2023-04-10T13:51:56.258Z,30.79
2023-04-10T13:54:30.746Z,29.64
2023-04-10T13:57:14.138Z,30.19
2023-04-10T13:59:44.710Z,29.85
2023-04-10T14:02:17.553Z,29.69
2023-04-10T14:04:59.023Z,26.20
2023-04-10T14:07:35.463Z,28.39
2023-04-10T14:10:06.197Z,25.63
2023-04-10T14:12:37.964Z,25.25
2023-04-10T14:15:13.188Z,21.74
2023-04-10T14:17:47.131Z,21.58
2023-04-10T14:20:17.719Z,21.39
2023-04-10T14:22:51.554Z,20.49
2023-04-10T14:25:25.893Z,20.80
2023-04-10T14:27:56.576Z,20.76
2023-04-10T14:30:33.853Z,21.08
2023-04-10T14:35:46.335Z,22.03
2023-04-10T14:38:25.484Z,22.98
2023-04-10T14:40:56.437Z,22.87
2023-04-10T14:43:32.590Z,24.60
2023-04-10T14:46:08.592Z,23.95
2023-04-10T14:48:42.253Z,23.86
2023-04-10T14:51:17.808Z,24.58
2023-04-10T14:53:51.469Z,25.04
2023-04-10T14:56:24.523Z,25.04
2023-04-10T14:58:55.762Z,25.79
2023-04-10T15:01:26.669Z,27.34
2023-04-10T15:04:00.700Z,26.59
2023-04-10T15:06:37.255Z,27.74
2023-04-10T15:09:07.873Z,26.51
2023-04-10T15:11:37.760Z,23.57
2023-04-10T15:14:11.383Z,25.26
2023-04-10T15:16:47.544Z,24.33
2023-04-10T15:22:18.123Z,21.11
2023-04-10T15:24:52.124Z,21.25
2023-04-10T15:27:32.100Z,20.38
2023-04-10T15:30:06.619Z,19.74
2023-04-10T15:32:38.170Z,19.84
2023-04-10T15:35:12.203Z,20.06
2023-04-10T15:37:44.711Z,19.73
2023-04-10T15:40:17.359Z,19.21
2023-04-10T15:42:54.512Z,19.57
2023-04-10T15:45:36.891Z,19.53
2023-04-10T15:48:06.621Z,20.05
2023-04-10T15:50:52.756Z,19.53
2023-04-10T15:53:31.636Z,20.35
2023-04-10T15:56:06.300Z,20.43
2023-04-10T15:58:47.093Z,18.99
2023-04-10T16:04:03.535Z,20.94
2023-04-10T16:06:37.906Z,21.03
2023-04-10T16:09:22.049Z,22.31
2023-04-10T16:12:09.311Z,21.63
2023-04-10T16:17:32.529Z,21.74
2023-04-10T16:20:07.577Z,21.19
2023-04-10T16:22:42.437Z,19.72
2023-04-10T16:25:27.269Z,19.33
2023-04-10T16:28:01.573Z,19.93
2023-04-10T16:30:32.675Z,18.62
2023-04-10T16:33:04.395Z,18.54
2023-04-10T16:35:36.324Z,18.06
2023-04-10T16:38:07.375Z,18.93
2023-04-10T16:40:39.129Z,18.24
2023-04-10T16:43:19.602Z,17.51
2023-04-10T16:45:59.198Z,16.96
2023-04-10T16:48:34.968Z,16.45
2023-04-10T16:51:10.454Z,16.14
2023-04-10T16:56:23.873Z,15.44
2023-04-10T17:01:42.811Z,15.26
2023-04-10T17:04:19.074Z,15.12
2023-04-10T17:06:58.156Z,15.33
2023-04-10T17:09:27.294Z,14.97
2023-04-10T17:12:03.931Z,14.07
2023-04-10T17:14:38.120Z,13.96
2023-04-10T17:17:19.685Z,14.00
2023-04-10T17:19:53.650Z,13.42
2023-04-10T17:22:27.055Z,13.47
2023-04-10T17:25:00.455Z,13.78
2023-04-10T17:27:30.567Z,13.95
2023-04-10T17:29:59.401Z,13.79
2023-04-10T17:35:11.454Z,13.30
2023-04-10T17:37:45.035Z,13.34
2023-04-10T17:40:18.936Z,13.02
2023-04-10T17:42:49.766Z,12.85
2023-04-10T17:45:18.917Z,12.84
2023-04-10T17:47:52.756Z,12.40
2023-04-10T17:50:22.379Z,11.98
2023-04-10T17:52:53.983Z,11.77
2023-04-10T17:55:24.181Z,11.51
2023-04-10T17:58:01.165Z,11.39
2023-04-10T18:00:44.914Z,11.07
2023-04-10T18:03:15.492Z,10.80
2023-04-10T18:05:57.771Z,10.75
2023-04-10T18:08:33.153Z,10.61
2023-04-10T18:11:07.880Z,10.57
2023-04-10T18:13:39.306Z,10.46
2023-04-10T18:16:10.306Z,10.24
2023-04-10T18:18:53.425Z,10.08
2023-04-10T18:21:32.039Z,10.23
2023-04-10T18:24:01.424Z,10.08
2023-04-10T18:26:38.343Z,10.09
2023-04-10T18:29:14.738Z,10.13
2023-04-10T18:31:47.709Z,10.20
2023-04-10T18:34:16.089Z,9.86
2023-04-10T18:36:46.765Z,9.59
2023-04-10T18:39:21.490Z,9.51
2023-04-10T18:41:55.194Z,9.46
2023-04-10T18:44:26.511Z,9.58
2023-04-10T18:47:03.786Z,9.68
2023-04-10T18:49:41.985Z,9.48
2023-04-10T18:52:26.302Z,9.06
2023-04-10T18:55:10.543Z,9.15
2023-04-10T18:57:41.169Z,8.71
2023-04-10T19:00:12.586Z,8.57
2023-04-10T19:02:43.757Z,8.33
2023-04-10T19:05:17.650Z,8.22
2023-04-10T19:08:03.106Z,8.19
2023-04-10T19:10:38.639Z,8.28
2023-04-10T19:13:09.315Z,8.32
2023-04-10T19:15:48.303Z,8.49
2023-04-10T19:18:31.928Z,7.65
2023-04-10T19:21:08.508Z,7.59
2023-04-10T19:23:48.611Z,7.32
2023-04-10T19:26:19.971Z,7.22
2023-04-10T19:28:51.880Z,6.84
2023-04-10T19:31:28.192Z,7.02
2023-04-10T19:36:57.978Z,6.57
2023-04-10T19:39:42.237Z,6.90
2023-04-10T19:42:11.515Z,7.02
2023-04-10T19:44:47.954Z,7.21
2023-04-10T19:47:28.679Z,7.17
2023-04-10T19:50:09.184Z,7.42
2023-04-10T19:52:46.722Z,7.06
2023-04-10T19:55:19.025Z,6.88
2023-04-10T19:57:49.414Z,6.60
2023-04-10T20:00:34.575Z,6.85
2023-04-10T20:03:07.654Z,6.70
2023-04-10T20:05:41.160Z,6.70
2023-04-10T20:08:21.487Z,6.67
2023-04-10T20:10:58.397Z,6.14
2023-04-10T20:13:32.208Z,5.91
2023-04-10T20:16:03.379Z,5.95
2023-04-10T20:18:50.710Z,6.11
2023-04-10T20:21:22.907Z,6.09
2023-04-10T20:23:57.202Z,6.08
2023-04-10T20:26:38.619Z,5.36
2023-04-10T20:29:17.345Z,4.87
2023-04-10T20:31:47.947Z,5.27
2023-04-10T20:34:21.730Z,5.70
2023-04-10T20:37:07.889Z,6.03
2023-04-10T20:39:42.271Z,6.30
2023-04-10T20:42:12.664Z,6.37
2023-04-10T20:44:43.844Z,5.93
2023-04-10T20:47:21.062Z,5.35
2023-04-10T20:49:52.053Z,5.36
2023-04-10T20:52:22.242Z,5.24
2023-04-10T20:55:02.377Z,5.25
2023-04-10T20:57:38.711Z,5.61
2023-04-10T21:00:18.429Z,5.85
2023-04-10T21:02:56.280Z,6.08
2023-04-10T21:05:30.130Z,5.85
2023-04-10T21:08:02.817Z,6.08
2023-04-10T21:10:37.321Z,5.54
2023-04-10T21:13:11.341Z,5.45
2023-04-10T21:18:29.689Z,5.41
2023-04-10T21:21:02.145Z,5.69
2023-04-10T21:23:39.708Z,5.49
2023-04-10T21:26:10.911Z,5.19
2023-04-10T21:28:46.198Z,4.90
2023-04-10T21:31:30.218Z,4.74
2023-04-10T21:34:00.914Z,4.33
2023-04-10T21:39:23.946Z,4.61
2023-04-10T21:41:53.514Z,4.71
2023-04-10T21:44:27.231Z,4.76
2023-04-10T21:49:43.948Z,4.94
2023-04-10T21:52:17.672Z,4.98
2023-04-10T21:54:55.253Z,4.78
2023-04-10T21:57:25.554Z,4.81
2023-04-10T21:59:59.591Z,3.89
2023-04-10T22:02:29.090Z,4.33
2023-04-10T22:05:00.779Z,4.43
2023-04-10T22:07:44.607Z,4.47
2023-04-10T22:10:20.174Z,3.50
2023-04-10T22:15:38.891Z,4.17
2023-04-10T22:18:07.695Z,4.19
2023-04-10T22:20:45.476Z,4.08
2023-04-10T22:26:00.954Z,4.45
2023-04-10T22:28:29.569Z,4.65
2023-04-10T22:31:00.937Z,4.82
2023-04-10T22:33:28.803Z,4.49
2023-04-10T22:36:03.454Z,4.48
2023-04-10T22:38:33.250Z,4.01
2023-04-10T22:41:06.172Z,4.03
2023-04-10T22:43:47.083Z,3.83
2023-04-10T22:46:23.330Z,4.21
2023-04-10T22:48:54.376Z,4.31
2023-04-10T22:51:28.857Z,4.41
2023-04-10T22:53:57.429Z,4.38
2023-04-10T22:56:42.727Z,4.22
2023-04-10T22:59:20.396Z,3.85
2023-04-10T23:01:52.130Z,3.49
2023-04-10T23:04:22.808Z,3.55
2023-04-10T23:06:53.305Z,3.52
2023-04-10T23:09:23.648Z,3.11
2023-04-10T23:11:51.367Z,3.39
2023-04-10T23:14:21.683Z,3.64
2023-04-10T23:16:50.611Z,3.59
2023-04-10T23:19:24.218Z,3.57
2023-04-10T23:24:40.836Z,3.88
2023-04-10T23:27:17.190Z,3.39
2023-04-10T23:29:51.249Z,3.21
2023-04-10T23:32:22.188Z,3.41
2023-04-10T23:35:07.896Z,3.73
2023-04-10T23:37:41.499Z,3.84
2023-04-10T23:40:12.203Z,3.57
2023-04-10T23:42:41.154Z,2.81
2023-04-10T23:45:15.767Z,2.79
2023-04-10T23:47:58.454Z,2.72
2023-04-10T23:50:32.351Z,2.69
2023-04-10T23:53:06.052Z,3.03
2023-04-10T23:55:39.895Z,3.28
2023-04-10T23:58:14.984Z,3.53
